Presidente Getulio, Brazil
Current Conditions -  °F | °C
As of 6:00 PM on Wednesday 26 Nov 2014 (Local Time) from SBNF Reporting Station
Broken Clouds Broken Clouds  
Wind Chill: 79°   Ceiling: 6000
Heat Index: 82°   Visibility: 6mi
Dew Point: 73°   Wind: 10mph
Humidity: 83%   Direction: 150°SSE
Pressure: 29.71"   Gusts: NA
Location:  27.05°S, 49.62°W
Report Text: SBNF 262000Z 15009KT 9999 FEW025 SCT043 BKN060 26/23 Q1006
Loading
Personal Weather Stations






























Interactive Weather Map New forecast layout! Learn more

10-Day Weather Forecast

Advertisements
Track Severe Weather on mobile